sensor_id;sensor_type;location;lat;lon;timestamp;pressure;altitude;pressure_sealevel;temperature;humidity
4469;BME280;2247;42.666;23.292;2023-04-09T00:00:14;94564.78;;;11.33;67.34
4469;BME280;2247;42.666;23.292;2023-04-09T00:02:41;94558.19;;;11.30;66.99
4469;BME280;2247;42.666;23.292;2023-04-09T00:05:08;94562.81;;;11.59;66.36
4469;BME280;2247;42.666;23.292;2023-04-09T00:07:35;94560.66;;;11.66;66.18
4469;BME280;2247;42.666;23.292;2023-04-09T00:10:04;94566.97;;;11.75;65.53
4469;BME280;2247;42.666;23.292;2023-04-09T00:12:32;94569.56;;;11.80;65.39
4469;BME280;2247;42.666;23.292;2023-04-09T00:14:59;94574.28;;;11.83;65.39
4469;BME280;2247;42.666;23.292;2023-04-09T00:17:26;94576.66;;;11.84;64.91
4469;BME280;2247;42.666;23.292;2023-04-09T00:19:53;94571.66;;;11.88;64.57
4469;BME280;2247;42.666;23.292;2023-04-09T00:22:19;94568.47;;;11.86;64.69
4469;BME280;2247;42.666;23.292;2023-04-09T00:24:46;94563.72;;;11.83;64.75
4469;BME280;2247;42.666;23.292;2023-04-09T00:27:13;94574.56;;;11.87;65.09
4469;BME280;2247;42.666;23.292;2023-04-09T00:29:41;94573.28;;;11.79;64.25
4469;BME280;2247;42.666;23.292;2023-04-09T00:32:08;94574.09;;;11.69;64.69
4469;BME280;2247;42.666;23.292;2023-04-09T00:34:35;94577.50;;;11.70;65.38
4469;BME280;2247;42.666;23.292;2023-04-09T00:37:03;94580.94;;;11.80;65.06
4469;BME280;2247;42.666;23.292;2023-04-09T00:39:30;94582.75;;;11.85;64.71
4469;BME280;2247;42.666;23.292;2023-04-09T00:41:57;94584.59;;;11.84;64.68
4469;BME280;2247;42.666;23.292;2023-04-09T00:44:24;94581.91;;;11.95;64.54
4469;BME280;2247;42.666;23.292;2023-04-09T00:46:53;94574.00;;;11.90;64.34
4469;BME280;2247;42.666;23.292;2023-04-09T00:49:20;94543.88;;;11.41;63.85
4469;BME280;2247;42.666;23.292;2023-04-09T00:51:49;94573.31;;;11.74;64.23
4469;BME280;2247;42.666;23.292;2023-04-09T00:54:16;94576.16;;;11.82;63.88
4469;BME280;2247;42.666;23.292;2023-04-09T00:56:42;94582.47;;;11.87;63.78
4469;BME280;2247;42.666;23.292;2023-04-09T00:59:09;94570.59;;;11.84;64.17
4469;BME280;2247;42.666;23.292;2023-04-09T01:01:36;94571.09;;;11.91;64.04
4469;BME280;2247;42.666;23.292;2023-04-09T01:04:04;94572.22;;;11.80;64.28
4469;BME280;2247;42.666;23.292;2023-04-09T01:06:38;94574.28;;;11.83;64.25
4469;BME280;2247;42.666;23.292;2023-04-09T01:09:13;94576.22;;;12.11;62.96
4469;BME280;2247;42.666;23.292;2023-04-09T01:11:52;94576.34;;;11.96;63.15
4469;BME280;2247;42.666;23.292;2023-04-09T01:14:25;94576.13;;;11.88;63.08
4469;BME280;2247;42.666;23.292;2023-04-09T01:16:57;94583.97;;;11.98;62.93
4469;BME280;2247;42.666;23.292;2023-04-09T01:19:36;94576.78;;;12.08;63.26
4469;BME280;2247;42.666;23.292;2023-04-09T01:22:09;94587.91;;;12.05;63.00
4469;BME280;2247;42.666;23.292;2023-04-09T01:24:49;94583.97;;;12.03;62.89
4469;BME280;2247;42.666;23.292;2023-04-09T01:29:59;94590.06;;;11.98;62.12
4469;BME280;2247;42.666;23.292;2023-04-09T01:32:28;94587.56;;;11.68;62.57
4469;BME280;2247;42.666;23.292;2023-04-09T01:34:58;94587.63;;;11.58;62.99
4469;BME280;2247;42.666;23.292;2023-04-09T01:37:26;94581.50;;;11.67;62.84
4469;BME280;2247;42.666;23.292;2023-04-09T01:39:52;94579.88;;;11.81;63.01
4469;BME280;2247;42.666;23.292;2023-04-09T01:42:20;94581.16;;;11.84;62.98
4469;BME280;2247;42.666;23.292;2023-04-09T01:44:47;94584.31;;;11.86;62.45
4469;BME280;2247;42.666;23.292;2023-04-09T01:47:16;94581.34;;;11.98;62.34
4469;BME280;2247;42.666;23.292;2023-04-09T01:49:43;94580.00;;;12.00;62.49
4469;BME280;2247;42.666;23.292;2023-04-09T01:52:11;94582.03;;;11.64;62.71
4469;BME280;2247;42.666;23.292;2023-04-09T01:54:38;94578.69;;;11.49;63.16
4469;BME280;2247;42.666;23.292;2023-04-09T01:57:04;94594.88;;;11.27;64.06
4469;BME280;2247;42.666;23.292;2023-04-09T01:59:31;94583.59;;;11.11;64.36
4469;BME280;2247;42.666;23.292;2023-04-09T02:02:00;94596.25;;;11.09;64.96
4469;BME280;2247;42.666;23.292;2023-04-09T02:04:35;94584.44;;;10.91;65.39
4469;BME280;2247;42.666;23.292;2023-04-09T02:07:09;94589.72;;;10.91;65.53
4469;BME280;2247;42.666;23.292;2023-04-09T02:09:38;94588.13;;;10.80;65.56
4469;BME280;2247;42.666;23.292;2023-04-09T02:12:09;94589.72;;;10.76;66.35
4469;BME280;2247;42.666;23.292;2023-04-09T02:14:39;94588.97;;;10.71;66.17
4469;BME280;2247;42.666;23.292;2023-04-09T02:17:05;94582.13;;;10.49;66.59
4469;BME280;2247;42.666;23.292;2023-04-09T02:19:41;94580.53;;;10.53;66.90
4469;BME280;2247;42.666;23.292;2023-04-09T02:22:09;94586.06;;;10.47;67.42
4469;BME280;2247;42.666;23.292;2023-04-09T02:24:36;94588.44;;;10.48;67.49
4469;BME280;2247;42.666;23.292;2023-04-09T02:27:05;94591.88;;;10.49;67.07
4469;BME280;2247;42.666;23.292;2023-04-09T02:29:32;94585.03;;;10.43;67.58
4469;BME280;2247;42.666;23.292;2023-04-09T02:31:59;94583.97;;;10.44;67.42
4469;BME280;2247;42.666;23.292;2023-04-09T02:34:26;94553.94;;;10.35;67.07
4469;BME280;2247;42.666;23.292;2023-04-09T02:36:54;94585.53;;;10.55;66.94
4469;BME280;2247;42.666;23.292;2023-04-09T02:39:21;94579.47;;;10.54;67.02
4469;BME280;2247;42.666;23.292;2023-04-09T02:41:48;94575.78;;;10.55;66.71
4469;BME280;2247;42.666;23.292;2023-04-09T02:44:15;94583.16;;;10.53;66.94
4469;BME280;2247;42.666;23.292;2023-04-09T02:46:43;94580.53;;;10.63;67.13
4469;BME280;2247;42.666;23.292;2023-04-09T02:49:10;94577.09;;;10.63;66.37
4469;BME280;2247;42.666;23.292;2023-04-09T02:51:36;94573.13;;;10.65;66.37
4469;BME280;2247;42.666;23.292;2023-04-09T02:54:05;94574.75;;;10.56;66.69
4469;BME280;2247;42.666;23.292;2023-04-09T02:56:32;94566.56;;;10.53;66.78
4469;BME280;2247;42.666;23.292;2023-04-09T02:58:58;94566.03;;;10.66;66.53
4469;BME280;2247;42.666;23.292;2023-04-09T03:01:25;94566.81;;;10.72;66.30
4469;BME280;2247;42.666;23.292;2023-04-09T03:03:52;94570.72;;;10.79;66.11
4469;BME280;2247;42.666;23.292;2023-04-09T03:06:19;94567.56;;;10.92;65.87
4469;BME280;2247;42.666;23.292;2023-04-09T03:08:46;94567.28;;;10.94;65.55
4469;BME280;2247;42.666;23.292;2023-04-09T03:11:14;94572.03;;;10.92;65.04
4469;BME280;2247;42.666;23.292;2023-04-09T03:13:42;94570.19;;;10.97;65.10
4469;BME280;2247;42.666;23.292;2023-04-09T03:16:09;94581.00;;;10.96;64.94
4469;BME280;2247;42.666;23.292;2023-04-09T03:18:36;94565.19;;;10.86;64.88
4469;BME280;2247;42.666;23.292;2023-04-09T03:21:06;94572.03;;;10.87;64.92
4469;BME280;2247;42.666;23.292;2023-04-09T03:23:34;94575.50;;;10.77;65.01
4469;BME280;2247;42.666;23.292;2023-04-09T03:26:02;94566.81;;;10.77;65.27
4469;BME280;2247;42.666;23.292;2023-04-09T03:28:30;94566.03;;;10.71;65.44
4469;BME280;2247;42.666;23.292;2023-04-09T03:30:57;94566.28;;;10.75;65.49
4469;BME280;2247;42.666;23.292;2023-04-09T03:33:24;94565.50;;;10.69;65.51
4469;BME280;2247;42.666;23.292;2023-04-09T03:35:51;94567.31;;;10.74;65.28
4469;BME280;2247;42.666;23.292;2023-04-09T03:38:18;94559.66;;;10.82;65.59
4469;BME280;2247;42.666;23.292;2023-04-09T03:40:45;94567.28;;;10.94;64.96
4469;BME280;2247;42.666;23.292;2023-04-09T03:43:12;94568.34;;;10.98;64.81
4469;BME280;2247;42.666;23.292;2023-04-09T03:45:40;94563.34;;;10.91;64.65
4469;BME280;2247;42.666;23.292;2023-04-09T03:48:07;94572.84;;;10.72;65.35
4469;BME280;2247;42.666;23.292;2023-04-09T03:50:37;94570.53;;;10.55;64.98
4469;BME280;2247;42.666;23.292;2023-04-09T03:53:05;94576.34;;;10.42;65.48
4469;BME280;2247;42.666;23.292;2023-04-09T03:55:31;94576.88;;;10.29;66.28
4469;BME280;2247;42.666;23.292;2023-04-09T03:57:58;94580.28;;;10.24;66.32
4469;BME280;2247;42.666;23.292;2023-04-09T04:16:26;94590.22;;;10.88;64.29
4469;BME280;2247;42.666;23.292;2023-04-09T04:18:53;94558.34;;;10.85;63.97
4469;BME280;2247;42.666;23.292;2023-04-09T04:21:21;94582.53;;;11.02;64.09
4469;BME280;2247;42.666;23.292;2023-04-09T04:23:47;94581.00;;;10.96;63.42
4469;BME280;2247;42.666;23.292;2023-04-09T04:26:15;94577.31;;;10.97;63.33
4469;BME280;2247;42.666;23.292;2023-04-09T04:28:41;94582.53;;;11.12;63.31
4469;BME280;2247;42.666;23.292;2023-04-09T04:31:09;94584.91;;;11.09;62.98
4469;BME280;2247;42.666;23.292;2023-04-09T04:33:38;94589.16;;;10.94;63.42
4469;BME280;2247;42.666;23.292;2023-04-09T04:36:06;94588.88;;;11.01;63.27
4469;BME280;2247;42.666;23.292;2023-04-09T04:38:34;94583.31;;;11.07;62.98
4469;BME280;2247;42.666;23.292;2023-04-09T04:41:01;94578.88;;;10.93;62.69
4469;BME280;2247;42.666;23.292;2023-04-09T04:43:28;94581.00;;;10.96;62.93
4469;BME280;2247;42.666;23.292;2023-04-09T04:45:56;94561.53;;;10.77;63.19
4469;BME280;2247;42.666;23.292;2023-04-09T04:48:24;94578.09;;;10.87;63.21
4469;BME280;2247;42.666;23.292;2023-04-09T04:50:58;94584.16;;;10.88;63.09
4469;BME280;2247;42.666;23.292;2023-04-09T04:53:24;94586.81;;;10.83;63.43
4469;BME280;2247;42.666;23.292;2023-04-09T04:55:52;94587.09;;;10.66;64.00
4469;BME280;2247;42.666;23.292;2023-04-09T04:58:19;94585.28;;;10.56;64.96
4469;BME280;2247;42.666;23.292;2023-04-09T05:00:46;94593.19;;;10.56;65.13
4469;BME280;2247;42.666;23.292;2023-04-09T05:03:13;94597.13;;;10.39;65.80
4469;BME280;2247;42.666;23.292;2023-04-09T05:05:40;94588.44;;;10.33;66.42
4469;BME280;2247;42.666;23.292;2023-04-09T05:08:08;94588.94;;;10.15;67.04
4469;BME280;2247;42.666;23.292;2023-04-09T05:10:35;94598.44;;;10.26;67.37
4469;BME280;2247;42.666;23.292;2023-04-09T05:13:02;94591.06;;;10.53;66.23
4469;BME280;2247;42.666;23.292;2023-04-09T05:15:29;94594.78;;;10.57;66.30
4469;BME280;2247;42.666;23.292;2023-04-09T05:17:56;94594.50;;;10.54;66.27
4469;BME280;2247;42.666;23.292;2023-04-09T05:20:24;94606.38;;;10.36;66.60
4469;BME280;2247;42.666;23.292;2023-04-09T05:22:53;94616.09;;;10.31;66.71
4469;BME280;2247;42.666;23.292;2023-04-09T05:25:21;94600.53;;;10.14;66.97
4469;BME280;2247;42.666;23.292;2023-04-09T05:27:48;94609.44;;;9.93;68.09
4469;BME280;2247;42.666;23.292;2023-04-09T05:30:15;94619.19;;;9.87;68.41
4469;BME280;2247;42.666;23.292;2023-04-09T05:32:42;94608.34;;;9.68;68.69
4469;BME280;2247;42.666;23.292;2023-04-09T05:35:09;94608.06;;;9.70;68.84
4469;BME280;2247;42.666;23.292;2023-04-09T05:37:35;94585.72;;;9.82;69.13
4469;BME280;2247;42.666;23.292;2023-04-09T05:40:03;94596.53;;;9.91;69.20
4469;BME280;2247;42.666;23.292;2023-04-09T05:42:32;94597.63;;;9.95;68.52
4469;BME280;2247;42.666;23.292;2023-04-09T05:44:58;94609.72;;;9.96;68.79
4469;BME280;2247;42.666;23.292;2023-04-09T05:47:25;94612.88;;;10.03;68.81
4469;BME280;2247;42.666;23.292;2023-04-09T05:49:53;94606.88;;;10.18;68.14
4469;BME280;2247;42.666;23.292;2023-04-09T05:52:20;94601.31;;;10.14;67.41
4469;BME280;2247;42.666;23.292;2023-04-09T05:54:47;94603.72;;;10.41;67.49
4469;BME280;2247;42.666;23.292;2023-04-09T05:57:13;94604.25;;;10.53;66.40
4469;BME280;2247;42.666;23.292;2023-04-09T05:59:42;94588.97;;;10.71;66.75
4469;BME280;2247;42.666;23.292;2023-04-09T06:02:09;94607.09;;;10.87;65.11
4469;BME280;2247;42.666;23.292;2023-04-09T06:04:35;94592.59;;;10.90;65.11
4469;BME280;2247;42.666;23.292;2023-04-09T06:07:03;94602.06;;;11.06;64.25
4469;BME280;2247;42.666;23.292;2023-04-09T06:09:30;94611.75;;;11.26;64.06
4469;BME280;2247;42.666;23.292;2023-04-09T06:11:56;94605.25;;;10.98;63.40
4469;BME280;2247;42.666;23.292;2023-04-09T06:14:24;94600.72;;;11.09;64.31
4469;BME280;2247;42.666;23.292;2023-04-09T06:16:53;94610.41;;;11.38;62.32
4469;BME280;2247;42.666;23.292;2023-04-09T06:19:21;94602.25;;;11.30;62.96
4469;BME280;2247;42.666;23.292;2023-04-09T06:21:48;94607.22;;;11.36;61.46
4469;BME280;2247;42.666;23.292;2023-04-09T06:24:15;94608.88;;;11.17;61.53
4469;BME280;2247;42.666;23.292;2023-04-09T06:26:42;94602.00;;;11.21;61.87
4469;BME280;2247;42.666;23.292;2023-04-09T06:29:09;94602.59;;;11.03;62.15
4469;BME280;2247;42.666;23.292;2023-04-09T06:31:36;94602.00;;;11.21;62.49
4469;BME280;2247;42.666;23.292;2023-04-09T06:34:04;94610.63;;;11.47;60.81
4469;BME280;2247;42.666;23.292;2023-04-09T06:38:58;94598.16;;;12.12;58.51
4469;BME280;2247;42.666;23.292;2023-04-09T06:41:25;94605.28;;;12.50;57.72
4469;BME280;2247;42.666;23.292;2023-04-09T06:43:53;94611.78;;;12.63;56.21
4469;BME280;2247;42.666;23.292;2023-04-09T06:46:20;94620.78;;;12.62;55.41
4469;BME280;2247;42.666;23.292;2023-04-09T06:48:47;94630.94;;;12.45;55.01
4469;BME280;2247;42.666;23.292;2023-04-09T06:51:15;94629.53;;;12.23;55.65
4469;BME280;2247;42.666;23.292;2023-04-09T06:53:42;94612.75;;;11.99;57.59
4469;BME280;2247;42.666;23.292;2023-04-09T06:56:09;94609.09;;;12.34;56.66
4469;BME280;2247;42.666;23.292;2023-04-09T06:58:39;94630.72;;;12.41;56.37
4469;BME280;2247;42.666;23.292;2023-04-09T07:01:06;94614.00;;;12.46;56.17
4469;BME280;2247;42.666;23.292;2023-04-09T07:03:33;94616.31;;;12.57;55.68
4469;BME280;2247;42.666;23.292;2023-04-09T07:05:59;94611.94;;;12.43;55.97
4469;BME280;2247;42.666;23.292;2023-04-09T07:08:28;94631.72;;;12.50;56.13
4469;BME280;2247;42.666;23.292;2023-04-09T07:10:55;94606.66;;;12.43;55.35
4469;BME280;2247;42.666;23.292;2023-04-09T07:13:21;94608.47;;;12.47;55.71
4469;BME280;2247;42.666;23.292;2023-04-09T07:15:48;94631.41;;;12.52;55.14
4469;BME280;2247;42.666;23.292;2023-04-09T07:18:15;94607.66;;;12.47;54.54
4469;BME280;2247;42.666;23.292;2023-04-09T07:20:43;94610.41;;;12.32;54.37
4469;BME280;2247;42.666;23.292;2023-04-09T07:23:10;94627.47;;;12.15;54.91
4469;BME280;2247;42.666;23.292;2023-04-09T07:25:38;94634.66;;;12.05;55.13
4469;BME280;2247;42.666;23.292;2023-04-09T07:28:05;94636.72;;;12.13;55.84
4469;BME280;2247;42.666;23.292;2023-04-09T07:30:33;94612.66;;;12.14;55.81
4469;BME280;2247;42.666;23.292;2023-04-09T07:33:00;94627.94;;;12.22;55.51
4469;BME280;2247;42.666;23.292;2023-04-09T07:35:27;94613.53;;;12.44;55.31
4469;BME280;2247;42.666;23.292;2023-04-09T07:37:55;94601.28;;;12.82;54.59
4469;BME280;2247;42.666;23.292;2023-04-09T07:40:21;94610.53;;;13.08;53.08
4469;BME280;2247;42.666;23.292;2023-04-09T07:42:49;94615.09;;;13.02;51.92
4469;BME280;2247;42.666;23.292;2023-04-09T07:45:17;94626.03;;;13.25;52.47
4469;BME280;2247;42.666;23.292;2023-04-09T07:47:45;94615.28;;;13.40;52.03
4469;BME280;2247;42.666;23.292;2023-04-09T07:50:12;94619.50;;;13.41;50.92
4469;BME280;2247;42.666;23.292;2023-04-09T07:52:39;94631.53;;;13.28;51.03
4469;BME280;2247;42.666;23.292;2023-04-09T07:55:07;94625.16;;;13.00;52.00
4469;BME280;2247;42.666;23.292;2023-04-09T07:57:34;94621.09;;;12.84;52.58
4469;BME280;2247;42.666;23.292;2023-04-09T08:00:05;94654.97;;;12.82;53.27
4469;BME280;2247;42.666;23.292;2023-04-09T08:02:34;94651.06;;;13.03;53.61
4469;BME280;2247;42.666;23.292;2023-04-09T08:05:03;94639.72;;;13.03;52.88
4469;BME280;2247;42.666;23.292;2023-04-09T08:07:30;94653.19;;;13.07;52.23
4469;BME280;2247;42.666;23.292;2023-04-09T08:09:57;94644.31;;;12.92;51.75
4469;BME280;2247;42.666;23.292;2023-04-09T08:12:25;94632.16;;;12.91;51.82
4469;BME280;2247;42.666;23.292;2023-04-09T08:14:51;94655.97;;;12.86;52.57
4469;BME280;2247;42.666;23.292;2023-04-09T08:17:19;94661.38;;;12.76;53.03
4469;BME280;2247;42.666;23.292;2023-04-09T08:19:46;94651.94;;;12.65;53.29
4469;BME280;2247;42.666;23.292;2023-04-09T08:22:22;94632.94;;;12.63;53.06
4469;BME280;2247;42.666;23.292;2023-04-09T08:24:50;94653.13;;;12.83;53.24
4469;BME280;2247;42.666;23.292;2023-04-09T08:27:17;94639.97;;;13.01;52.51
4469;BME280;2247;42.666;23.292;2023-04-09T08:29:44;94646.34;;;12.72;52.94
4469;BME280;2247;42.666;23.292;2023-04-09T08:32:11;94642.81;;;12.47;52.96
4469;BME280;2247;42.666;23.292;2023-04-09T08:34:40;94640.06;;;12.29;54.12
4469;BME280;2247;42.666;23.292;2023-04-09T08:37:07;94617.75;;;12.40;54.27
4469;BME280;2247;42.666;23.292;2023-04-09T08:39:34;94616.50;;;12.66;53.54
4469;BME280;2247;42.666;23.292;2023-04-09T08:42:04;94622.56;;;12.72;54.14
4469;BME280;2247;42.666;23.292;2023-04-09T08:44:32;94615.34;;;12.77;53.87
4469;BME280;2247;42.666;23.292;2023-04-09T08:47:00;94664.81;;;12.77;53.20
4469;BME280;2247;42.666;23.292;2023-04-09T08:49:27;94648.91;;;12.48;53.85
4469;BME280;2247;42.666;23.292;2023-04-09T08:51:55;94654.19;;;12.48;55.32
4469;BME280;2247;42.666;23.292;2023-04-09T08:54:21;94648.78;;;12.24;55.29
4469;BME280;2247;42.666;23.292;2023-04-09T08:56:51;94632.13;;;12.29;55.43
4469;BME280;2247;42.666;23.292;2023-04-09T08:59:17;94653.75;;;12.36;54.72
4469;BME280;2247;42.666;23.292;2023-04-09T09:01:45;94646.63;;;12.31;54.95
4469;BME280;2247;42.666;23.292;2023-04-09T09:04:16;94641.41;;;12.21;55.65
4469;BME280;2247;42.666;23.292;2023-04-09T09:06:43;94653.69;;;12.02;55.93
4469;BME280;2247;42.666;23.292;2023-04-09T09:09:12;94627.63;;;11.85;56.24
4469;BME280;2247;42.666;23.292;2023-04-09T09:11:41;94639.84;;;11.66;57.04
4469;BME280;2247;42.666;23.292;2023-04-09T09:14:09;94634.25;;;11.77;56.30
4469;BME280;2247;42.666;23.292;2023-04-09T09:16:38;94651.34;;;11.90;56.74
4469;BME280;2247;42.666;23.292;2023-04-09T09:19:07;94610.47;;;11.82;55.89
4469;BME280;2247;42.666;23.292;2023-04-09T09:21:35;94623.41;;;11.84;56.45
4469;BME280;2247;42.666;23.292;2023-04-09T09:24:16;94639.97;;;12.00;55.00
4469;BME280;2247;42.666;23.292;2023-04-09T09:26:43;94607.44;;;12.04;54.68
4469;BME280;2247;42.666;23.292;2023-04-09T09:29:10;94612.59;;;12.24;54.19
4469;BME280;2247;42.666;23.292;2023-04-09T09:31:45;94631.16;;;12.14;54.05
4469;BME280;2247;42.666;23.292;2023-04-09T09:34:13;94622.19;;;12.15;54.39
4469;BME280;2247;42.666;23.292;2023-04-09T09:36:41;94606.91;;;12.07;55.04
4469;BME280;2247;42.666;23.292;2023-04-09T09:39:09;94622.13;;;12.20;54.26
4469;BME280;2247;42.666;23.292;2023-04-09T09:41:39;94593.31;;;12.24;53.50
4469;BME280;2247;42.666;23.292;2023-04-09T09:44:07;94609.13;;;12.29;53.75
4469;BME280;2247;42.666;23.292;2023-04-09T09:46:35;94621.56;;;12.29;52.90
4469;BME280;2247;42.666;23.292;2023-04-09T09:49:03;94645.97;;;12.15;53.59
4469;BME280;2247;42.666;23.292;2023-04-09T09:51:31;94610.00;;;12.19;53.88
4469;BME280;2247;42.666;23.292;2023-04-09T09:53:58;94590.44;;;12.20;52.73
4469;BME280;2247;42.666;23.292;2023-04-09T09:56:29;94594.88;;;12.25;52.37
4469;BME280;2247;42.666;23.292;2023-04-09T09:59:05;94631.09;;;12.24;52.01
4469;BME280;2247;42.666;23.292;2023-04-09T10:01:33;94595.41;;;12.27;51.98
4469;BME280;2247;42.666;23.292;2023-04-09T10:04:01;94604.16;;;12.22;51.66
4469;BME280;2247;42.666;23.292;2023-04-09T10:06:31;94588.63;;;12.11;52.93
4469;BME280;2247;42.666;23.292;2023-04-09T10:09:01;94594.72;;;12.11;52.57
4469;BME280;2247;42.666;23.292;2023-04-09T10:11:30;94604.13;;;12.28;52.01
4469;BME280;2247;42.666;23.292;2023-04-09T10:13:58;94592.22;;;12.30;52.34
4469;BME280;2247;42.666;23.292;2023-04-09T10:16:27;94596.41;;;12.31;52.32
4469;BME280;2247;42.666;23.292;2023-04-09T10:18:55;94569.13;;;12.41;52.52
4469;BME280;2247;42.666;23.292;2023-04-09T10:21:31;94609.50;;;12.51;50.95
4469;BME280;2247;42.666;23.292;2023-04-09T10:24:01;94567.38;;;12.60;51.53
4469;BME280;2247;42.666;23.292;2023-04-09T10:26:32;94589.41;;;12.79;50.10
4469;BME280;2247;42.666;23.292;2023-04-09T10:29:04;94565.78;;;12.64;50.74
4469;BME280;2247;42.666;23.292;2023-04-09T10:31:47;94538.53;;;12.63;50.43
4469;BME280;2247;42.666;23.292;2023-04-09T10:34:16;94578.78;;;12.84;49.68
4469;BME280;2247;42.666;23.292;2023-04-09T10:36:44;94586.66;;;12.89;50.36
4469;BME280;2247;42.666;23.292;2023-04-09T10:39:11;94580.53;;;12.94;49.96
4469;BME280;2247;42.666;23.292;2023-04-09T10:41:39;94577.47;;;13.11;49.85
4469;BME280;2247;42.666;23.292;2023-04-09T10:44:18;94555.00;;;13.08;49.35
4469;BME280;2247;42.666;23.292;2023-04-09T10:46:47;94555.09;;;13.27;48.83
4469;BME280;2247;42.666;23.292;2023-04-09T10:49:18;94555.38;;;13.25;48.44
4469;BME280;2247;42.666;23.292;2023-04-09T10:51:52;94564.97;;;13.40;48.54
4469;BME280;2247;42.666;23.292;2023-04-09T10:54:38;94569.06;;;13.51;47.38
4469;BME280;2247;42.666;23.292;2023-04-09T10:57:12;94534.66;;;13.51;47.50
4469;BME280;2247;42.666;23.292;2023-04-09T10:59:41;94545.59;;;13.45;47.48
4469;BME280;2247;42.666;23.292;2023-04-09T11:05:18;94543.31;;;13.57;47.88
4469;BME280;2247;42.666;23.292;2023-04-09T11:07:52;94531.22;;;13.69;47.18
4469;BME280;2247;42.666;23.292;2023-04-09T11:10:20;94541.47;;;13.76;47.74
4469;BME280;2247;42.666;23.292;2023-04-09T11:12:47;94533.59;;;13.71;47.33
4469;BME280;2247;42.666;23.292;2023-04-09T11:15:15;94506.47;;;13.60;46.79
4469;BME280;2247;42.666;23.292;2023-04-09T11:17:44;94536.47;;;13.74;46.52
4469;BME280;2247;42.666;23.292;2023-04-09T11:20:12;94544.97;;;13.71;46.70
4469;BME280;2247;42.666;23.292;2023-04-09T11:22:39;94526.66;;;13.75;46.24
4469;BME280;2247;42.666;23.292;2023-04-09T11:25:06;94530.88;;;13.76;46.47
4469;BME280;2247;42.666;23.292;2023-04-09T11:27:36;94544.84;;;13.82;46.82
4469;BME280;2247;42.666;23.292;2023-04-09T11:30:04;94523.59;;;13.68;47.23
4469;BME280;2247;42.666;23.292;2023-04-09T11:32:32;94531.03;;;13.66;47.69
4469;BME280;2247;42.666;23.292;2023-04-09T11:35:01;94533.81;;;13.74;48.34
4469;BME280;2247;42.666;23.292;2023-04-09T11:37:28;94525.66;;;13.90;48.09
4469;BME280;2247;42.666;23.292;2023-04-09T11:39:55;94522.34;;;13.98;48.30
4469;BME280;2247;42.666;23.292;2023-04-09T11:42:22;94524.56;;;14.09;47.43
4469;BME280;2247;42.666;23.292;2023-04-09T11:44:51;94520.47;;;14.17;46.50
4469;BME280;2247;42.666;23.292;2023-04-09T11:47:18;94519.00;;;14.25;46.33
4469;BME280;2247;42.666;23.292;2023-04-09T11:49:46;94517.91;;;14.26;46.17
4469;BME280;2247;42.666;23.292;2023-04-09T11:52:15;94520.78;;;14.29;45.94
4469;BME280;2247;42.666;23.292;2023-04-09T11:54:41;94509.25;;;14.39;45.92
4469;BME280;2247;42.666;23.292;2023-04-09T11:57:13;94518.16;;;14.29;46.77
4469;BME280;2247;42.666;23.292;2023-04-09T11:59:40;94516.44;;;14.19;46.71
4469;BME280;2247;42.666;23.292;2023-04-09T12:02:07;94522.06;;;13.99;47.56
4469;BME280;2247;42.666;23.292;2023-04-09T12:04:34;94512.47;;;13.85;47.00
4469;BME280;2247;42.666;23.292;2023-04-09T12:07:01;94504.94;;;13.92;48.49
4469;BME280;2247;42.666;23.292;2023-04-09T12:09:29;94502.00;;;13.93;49.21
4469;BME280;2247;42.666;23.292;2023-04-09T12:11:58;94506.94;;;14.00;49.47
4469;BME280;2247;42.666;23.292;2023-04-09T12:14:26;94500.78;;;14.04;48.65
4469;BME280;2247;42.666;23.292;2023-04-09T12:16:53;94500.66;;;14.28;48.36
4469;BME280;2247;42.666;23.292;2023-04-09T12:19:24;94509.91;;;14.31;48.78
4469;BME280;2247;42.666;23.292;2023-04-09T12:21:53;94511.03;;;14.25;47.79
4469;BME280;2247;42.666;23.292;2023-04-09T12:24:23;94501.16;;;14.30;47.77
4469;BME280;2247;42.666;23.292;2023-04-09T12:26:52;94502.59;;;14.41;48.67
4469;BME280;2247;42.666;23.292;2023-04-09T12:29:20;94493.69;;;14.51;47.16
4469;BME280;2247;42.666;23.292;2023-04-09T12:31:47;94503.56;;;14.45;47.26
4469;BME280;2247;42.666;23.292;2023-04-09T12:34:14;94506.53;;;14.44;47.13
4469;BME280;2247;42.666;23.292;2023-04-09T12:36:41;94488.75;;;14.44;46.40
4469;BME280;2247;42.666;23.292;2023-04-09T12:39:08;94482.19;;;14.55;45.49
4469;BME280;2247;42.666;23.292;2023-04-09T12:41:35;94481.69;;;14.53;46.07
4469;BME280;2247;42.666;23.292;2023-04-09T12:44:04;94486.19;;;14.39;45.41
4469;BME280;2247;42.666;23.292;2023-04-09T12:46:32;94482.44;;;14.40;45.74
4469;BME280;2247;42.666;23.292;2023-04-09T12:48:58;94480.09;;;14.39;46.29
4469;BME280;2247;42.666;23.292;2023-04-09T12:51:25;94469.69;;;14.42;46.08
4469;BME280;2247;42.666;23.292;2023-04-09T12:53:52;94470.50;;;14.43;45.00
4469;BME280;2247;42.666;23.292;2023-04-09T12:56:19;94481.69;;;14.21;44.45
4469;BME280;2247;42.666;23.292;2023-04-09T12:58:46;94484.41;;;14.02;44.80
4469;BME280;2247;42.666;23.292;2023-04-09T13:01:16;94475.66;;;14.02;45.66
4469;BME280;2247;42.666;23.292;2023-04-09T13:03:43;94470.22;;;13.93;45.67
4469;BME280;2247;42.666;23.292;2023-04-09T13:06:10;94468.72;;;13.87;46.36
4469;BME280;2247;42.666;23.292;2023-04-09T13:08:37;94478.38;;;13.97;46.43
4469;BME280;2247;42.666;23.292;2023-04-09T13:11:04;94485.25;;;13.98;46.37
4469;BME280;2247;42.666;23.292;2023-04-09T13:13:31;94468.56;;;13.97;45.38
4469;BME280;2247;42.666;23.292;2023-04-09T13:15:57;94466.22;;;13.96;45.38
4469;BME280;2247;42.666;23.292;2023-04-09T13:18:26;94473.44;;;13.90;44.86
4469;BME280;2247;42.666;23.292;2023-04-09T13:20:52;94458.22;;;13.82;45.20
4469;BME280;2247;42.666;23.292;2023-04-09T13:23:19;94463.56;;;13.96;44.47
4469;BME280;2247;42.666;23.292;2023-04-09T13:25:46;94455.81;;;13.99;44.42
4469;BME280;2247;42.666;23.292;2023-04-09T13:28:13;94468.03;;;14.14;44.49
4469;BME280;2247;42.666;23.292;2023-04-09T13:30:40;94469.69;;;14.10;44.75
4469;BME280;2247;42.666;23.292;2023-04-09T13:33:07;94462.22;;;14.12;44.30
4469;BME280;2247;42.666;23.292;2023-04-09T13:35:36;94452.53;;;14.21;43.81
4469;BME280;2247;42.666;23.292;2023-04-09T13:38:03;94456.94;;;14.12;44.27
4469;BME280;2247;42.666;23.292;2023-04-09T13:40:29;94471.94;;;14.03;44.50